createdAt,value
2023-05-05T00:00:27.732Z,21.4530
2023-05-05T00:01:28.839Z,21.4511
2023-05-05T00:02:30.051Z,21.4704
2023-05-05T00:03:31.134Z,21.5041
2023-05-05T00:04:32.163Z,21.4656
2023-05-05T00:05:33.282Z,21.4714
2023-05-05T00:06:34.386Z,21.4530
2023-05-05T00:07:35.522Z,21.4445
2023-05-05T00:08:36.591Z,21.4674
2023-05-05T00:09:37.717Z,21.4804
2023-05-05T00:10:38.805Z,21.5082
2023-05-05T00:11:39.920Z,21.4770
2023-05-05T00:12:41.053Z,21.4511
2023-05-05T00:13:42.151Z,21.4330
2023-05-05T00:14:43.231Z,21.4424
2023-05-05T00:15:44.340Z,21.4285
2023-05-05T00:16:45.457Z,21.4272
2023-05-05T00:17:46.630Z,21.4508
2023-05-05T00:18:47.658Z,21.4365
2023-05-05T00:19:48.755Z,21.4352
2023-05-05T00:20:49.883Z,21.4333
2023-05-05T00:21:50.957Z,21.4268
2023-05-05T00:22:52.075Z,21.4085
2023-05-05T00:23:53.181Z,21.3671
2023-05-05T00:24:54.291Z,21.3653
2023-05-05T00:25:55.380Z,21.3591
2023-05-05T00:26:56.494Z,21.3459
2023-05-05T00:27:57.604Z,21.3388
2023-05-05T00:28:58.711Z,21.3686
2023-05-05T00:29:59.815Z,21.3870
2023-05-05T00:31:00.957Z,21.3987
2023-05-05T00:32:02.037Z,21.4219
2023-05-05T00:33:03.217Z,21.4261
2023-05-05T00:34:04.252Z,21.3992
2023-05-05T00:35:05.327Z,21.3660
2023-05-05T00:36:06.407Z,21.3369
2023-05-05T00:37:07.520Z,21.3382
2023-05-05T00:38:08.638Z,21.3055
2023-05-05T00:39:09.705Z,21.2690
2023-05-05T00:40:10.796Z,21.2981
2023-05-05T00:41:11.905Z,21.3191
2023-05-05T00:42:13.022Z,21.3297
2023-05-05T00:43:14.093Z,21.3235
2023-05-05T00:44:15.188Z,21.3273
2023-05-05T00:45:16.291Z,21.3865
2023-05-05T00:46:17.410Z,21.4372
2023-05-05T00:47:18.469Z,21.4265
2023-05-05T00:48:19.592Z,21.4114
2023-05-05T00:49:20.703Z,21.4204
2023-05-05T00:50:21.773Z,21.4437
2023-05-05T00:51:22.841Z,21.3947
2023-05-05T00:52:23.930Z,21.3587
2023-05-05T00:53:25.234Z,21.3507
2023-05-05T00:54:26.124Z,21.3795
2023-05-05T00:55:27.225Z,21.4039
2023-05-05T00:56:28.311Z,21.4096
2023-05-05T00:57:29.394Z,21.3984
2023-05-05T00:58:30.494Z,21.3977
2023-05-05T00:59:31.582Z,21.4211
2023-05-05T01:00:32.696Z,21.4242
2023-05-05T01:01:33.799Z,21.4236
2023-05-05T01:02:34.944Z,21.4323
2023-05-05T01:03:36.080Z,21.4195
2023-05-05T01:04:37.093Z,21.4206
2023-05-05T01:05:38.167Z,21.4436
2023-05-05T01:06:39.255Z,21.4740
2023-05-05T01:07:40.358Z,21.4829
2023-05-05T01:08:41.496Z,21.4871
2023-05-05T01:09:42.535Z,21.4482
2023-05-05T01:10:43.643Z,21.4359
2023-05-05T01:11:44.764Z,21.4342
2023-05-05T01:12:45.863Z,21.4052
2023-05-05T01:13:46.967Z,21.4070
2023-05-05T01:14:48.020Z,21.3964
2023-05-05T01:15:49.118Z,21.3693
2023-05-05T01:16:50.213Z,21.4026
2023-05-05T01:17:51.319Z,21.4521
2023-05-05T01:18:52.420Z,21.4715
2023-05-05T01:19:53.505Z,21.4582
2023-05-05T01:20:54.585Z,21.4438
2023-05-05T01:21:55.686Z,21.4049
2023-05-05T01:22:56.800Z,21.3467
2023-05-05T01:23:57.877Z,21.3020
2023-05-05T01:24:58.989Z,21.2886
2023-05-05T01:26:00.097Z,21.3275
2023-05-05T01:27:01.168Z,21.3561
2023-05-05T01:28:02.275Z,21.3658
2023-05-05T01:29:03.403Z,21.4047
2023-05-05T01:30:04.477Z,21.4002
2023-05-05T01:31:05.578Z,21.4133
2023-05-05T01:32:06.656Z,21.4298
2023-05-05T01:33:07.744Z,21.4535
2023-05-05T01:34:08.865Z,21.4488
2023-05-05T01:35:09.957Z,21.4304
2023-05-05T01:36:11.021Z,21.4318
2023-05-05T01:37:12.139Z,21.4009
2023-05-05T01:38:13.231Z,21.3720
2023-05-05T01:39:14.333Z,21.3542
2023-05-05T01:40:15.424Z,21.3681
2023-05-05T01:41:16.525Z,21.3763
2023-05-05T01:42:17.609Z,21.3747
2023-05-05T01:43:18.694Z,21.3566
2023-05-05T01:44:19.790Z,21.3463
2023-05-05T01:45:20.889Z,21.3283
2023-05-05T01:46:22.031Z,21.3147
2023-05-05T01:47:23.089Z,21.3180
2023-05-05T01:48:24.209Z,21.3375
2023-05-05T01:49:25.298Z,21.3779
2023-05-05T01:50:26.372Z,21.3834
2023-05-05T01:51:27.481Z,21.3672
2023-05-05T01:52:28.576Z,21.3529
2023-05-05T01:53:29.681Z,21.3451
2023-05-05T01:54:30.780Z,21.3608
2023-05-05T01:55:31.876Z,21.3739
2023-05-05T01:56:32.981Z,21.3321
2023-05-05T01:57:34.046Z,21.2836
2023-05-05T01:58:35.145Z,21.2834
2023-05-05T01:59:36.248Z,21.2789
2023-05-05T02:00:37.357Z,21.3099
2023-05-05T02:01:38.541Z,21.3782
2023-05-05T02:02:39.614Z,21.4097
2023-05-05T02:03:40.637Z,21.3874
2023-05-05T02:04:41.754Z,21.3359
2023-05-05T02:05:50.379Z,21.3317
2023-05-05T02:06:43.937Z,21.3143
2023-05-05T02:07:45.050Z,21.3170
2023-05-05T02:08:46.265Z,21.3169
2023-05-05T02:09:47.323Z,21.3392
2023-05-05T02:10:48.456Z,21.3305
2023-05-05T02:11:49.510Z,21.3508
2023-05-05T02:12:50.611Z,21.3637
2023-05-05T02:13:51.820Z,21.3758
2023-05-05T02:14:52.800Z,21.3781
2023-05-05T02:15:53.887Z,21.4191
2023-05-05T02:16:54.981Z,21.4300
2023-05-05T02:17:56.097Z,21.4282
2023-05-05T02:18:57.206Z,21.4231
2023-05-05T02:19:58.285Z,21.3879
2023-05-05T02:20:59.368Z,21.3979
2023-05-05T02:22:00.452Z,21.3806
2023-05-05T02:23:01.542Z,21.3513
2023-05-05T02:24:02.660Z,21.3564
2023-05-05T02:25:03.747Z,21.3468
2023-05-05T02:26:04.839Z,21.3924
2023-05-05T02:27:05.935Z,21.4095
2023-05-05T02:28:07.026Z,21.4039
2023-05-05T02:29:08.141Z,21.3740
2023-05-05T02:30:09.395Z,21.3780
2023-05-05T02:31:10.362Z,21.3665
2023-05-05T02:32:11.410Z,21.3504
2023-05-05T02:33:12.501Z,21.3753
2023-05-05T02:34:13.592Z,21.3981
2023-05-05T02:35:14.700Z,21.4002
2023-05-05T02:36:15.766Z,21.4122
2023-05-05T02:37:16.860Z,21.3984
2023-05-05T02:38:17.960Z,21.3873
2023-05-05T02:39:19.035Z,21.3882
2023-05-05T02:40:20.201Z,21.3487
2023-05-05T02:41:21.245Z,21.3537
2023-05-05T02:42:22.317Z,21.3449
2023-05-05T02:43:23.460Z,21.3004
2023-05-05T02:44:24.519Z,21.3048
2023-05-05T02:45:25.624Z,21.3148
2023-05-05T02:46:26.714Z,21.3324
2023-05-05T02:47:27.840Z,21.3475
2023-05-05T02:48:28.913Z,21.3550
2023-05-05T02:49:29.986Z,21.3328
2023-05-05T02:50:31.085Z,21.3160
2023-05-05T02:51:32.150Z,21.3036
2023-05-05T02:52:33.247Z,21.2954
2023-05-05T02:53:34.352Z,21.2902
2023-05-05T02:54:35.447Z,21.2879
2023-05-05T02:55:36.692Z,21.2893
2023-05-05T02:56:37.614Z,21.2746
2023-05-05T02:57:38.701Z,21.2695
2023-05-05T02:58:39.818Z,21.2598
2023-05-05T02:59:40.889Z,21.2823
2023-05-05T03:00:41.987Z,21.2845
2023-05-05T03:01:43.102Z,21.2718
2023-05-05T03:02:44.234Z,21.2952
2023-05-05T03:03:45.367Z,21.3039
2023-05-05T03:04:46.365Z,21.2625
2023-05-05T03:05:47.513Z,21.2510
2023-05-05T03:06:48.540Z,21.2586
2023-05-05T03:07:49.637Z,21.2791
2023-05-05T03:08:50.728Z,21.2873
2023-05-05T03:09:51.835Z,21.2925
2023-05-05T03:10:52.921Z,21.2846
2023-05-05T03:11:54.021Z,21.3115
2023-05-05T03:12:55.180Z,21.3204
2023-05-05T03:13:56.204Z,21.3281
2023-05-05T03:14:57.309Z,21.3244
2023-05-05T03:15:58.423Z,21.3128
2023-05-05T03:16:59.506Z,21.3221
2023-05-05T03:18:00.634Z,21.3149
2023-05-05T03:19:01.690Z,21.3007
2023-05-05T03:20:05.388Z,21.2965
2023-05-05T03:21:03.868Z,21.2923
2023-05-05T03:22:04.953Z,21.2893
2023-05-05T03:23:06.074Z,21.2848
2023-05-05T03:24:07.181Z,21.2745
2023-05-05T03:25:08.258Z,21.2487
2023-05-05T03:26:09.367Z,21.2146
2023-05-05T03:27:10.439Z,21.2157
2023-05-05T03:28:11.534Z,21.2423
2023-05-05T03:29:12.635Z,21.2216
2023-05-05T03:30:13.715Z,21.2377
2023-05-05T03:31:14.850Z,21.2652
2023-05-05T03:32:15.932Z,21.2843
2023-05-05T03:33:17.010Z,21.2991
2023-05-05T03:34:18.100Z,21.3058
2023-05-05T03:35:19.203Z,21.3025
2023-05-05T03:36:20.314Z,21.2807
2023-05-05T03:37:21.404Z,21.2803
2023-05-05T03:38:22.517Z,21.2819
2023-05-05T03:39:23.599Z,21.2836
2023-05-05T03:40:36.334Z,21.2738
2023-05-05T03:41:26.809Z,21.2693
2023-05-05T03:42:26.887Z,21.2834
2023-05-05T03:43:27.976Z,21.2701
2023-05-05T03:44:29.094Z,21.2333
2023-05-05T03:45:30.177Z,21.2075
2023-05-05T03:46:31.297Z,21.1878
2023-05-05T03:47:32.408Z,21.1905
2023-05-05T03:48:33.455Z,21.2048
2023-05-05T03:49:34.549Z,21.2191
2023-05-05T03:50:35.660Z,21.2482
2023-05-05T03:51:36.779Z,21.2522
2023-05-05T03:52:37.852Z,21.2645
2023-05-05T03:53:38.952Z,21.2815
2023-05-05T03:54:40.068Z,21.2916
2023-05-05T03:55:41.124Z,21.2756
2023-05-05T03:56:42.261Z,21.2664
2023-05-05T03:57:43.346Z,21.2364
2023-05-05T03:58:44.424Z,21.2216
2023-05-05T03:59:45.529Z,21.2121
2023-05-05T04:00:46.633Z,21.1979
2023-05-05T04:01:47.745Z,21.1758
2023-05-05T04:02:48.891Z,21.1805
2023-05-05T04:03:49.950Z,21.1958
2023-05-05T04:04:51.014Z,21.2265
2023-05-05T04:05:52.099Z,21.2531
2023-05-05T04:06:53.212Z,21.2508
2023-05-05T04:07:54.338Z,21.2575
2023-05-05T04:08:55.416Z,21.2631
2023-05-05T04:09:56.511Z,21.2550
2023-05-05T04:10:57.626Z,21.2460
2023-05-05T04:11:58.722Z,21.2619
2023-05-05T04:12:59.841Z,21.2731
2023-05-05T04:14:00.896Z,21.2734
2023-05-05T04:15:02.021Z,21.2751
2023-05-05T04:16:03.147Z,21.2963
2023-05-05T04:17:04.212Z,21.2919
2023-05-05T04:18:05.339Z,21.3014
2023-05-05T04:19:06.413Z,21.3013
2023-05-05T04:20:07.692Z,21.2708
2023-05-05T04:21:08.609Z,21.2334
2023-05-05T04:22:09.699Z,21.2230
2023-05-05T04:23:10.787Z,21.2299
2023-05-05T04:24:11.882Z,21.2240
2023-05-05T04:25:13.003Z,21.2503
2023-05-05T04:26:14.080Z,21.2622
2023-05-05T04:27:15.212Z,21.2757
2023-05-05T04:28:16.288Z,21.2701
2023-05-05T04:29:17.370Z,21.2361
2023-05-05T04:30:18.487Z,21.2714
2023-05-05T04:31:19.589Z,21.2993
2023-05-05T04:32:20.698Z,21.3201
2023-05-05T04:33:21.761Z,21.3227
2023-05-05T04:34:22.877Z,21.3190
2023-05-05T04:35:23.949Z,21.3350
2023-05-05T04:36:25.044Z,21.3233
2023-05-05T04:37:26.193Z,21.3085
2023-05-05T04:38:27.296Z,21.3252
2023-05-05T04:39:28.344Z,21.3501
2023-05-05T04:40:29.452Z,21.3138
2023-05-05T04:41:30.571Z,21.3124
2023-05-05T04:42:31.635Z,21.3003
2023-05-05T04:43:32.747Z,21.3223
2023-05-05T04:44:33.832Z,21.3512
2023-05-05T04:45:34.929Z,21.3151
2023-05-05T04:46:36.081Z,21.3465
2023-05-05T04:47:37.156Z,21.3469
2023-05-05T04:48:38.216Z,21.3347
2023-05-05T04:49:39.314Z,21.3107
2023-05-05T04:50:40.421Z,21.3397
2023-05-05T04:51:41.512Z,21.3656
2023-05-05T04:52:42.628Z,21.3623
2023-05-05T04:53:43.702Z,21.3790
2023-05-05T04:54:44.786Z,21.3775
2023-05-05T04:55:45.898Z,21.3683
2023-05-05T04:56:46.975Z,21.3885
2023-05-05T04:57:48.103Z,21.3850
2023-05-05T04:58:49.178Z,21.3910
2023-05-05T04:59:50.272Z,21.3975
2023-05-05T05:00:51.356Z,21.3618
2023-05-05T05:01:52.473Z,21.3230
2023-05-05T05:02:53.611Z,21.3044
2023-05-05T05:03:54.673Z,21.2646
2023-05-05T05:04:55.748Z,21.2720
2023-05-05T05:05:56.832Z,21.2926
2023-05-05T05:06:59.305Z,21.3088
2023-05-05T05:07:59.046Z,21.3436
2023-05-05T05:09:00.156Z,21.3728
2023-05-05T05:10:01.238Z,21.4240
2023-05-05T05:11:02.322Z,21.5041
2023-05-05T05:12:03.447Z,21.4975
2023-05-05T05:13:04.553Z,21.4744
2023-05-05T05:14:05.630Z,21.5187
2023-05-05T05:15:06.731Z,21.5291
2023-05-05T05:16:07.929Z,21.5483
2023-05-05T05:17:08.930Z,21.5073
2023-05-05T05:18:10.043Z,21.5143
2023-05-05T05:19:11.130Z,21.5178
2023-05-05T05:20:12.216Z,21.5145
2023-05-05T05:21:13.319Z,21.5045
2023-05-05T05:22:14.421Z,21.4933
2023-05-05T05:23:15.519Z,21.4780
2023-05-05T05:24:16.642Z,21.4751
2023-05-05T05:25:17.710Z,21.4681
2023-05-05T05:26:18.800Z,21.5226
2023-05-05T05:27:19.912Z,21.5162
2023-05-05T05:28:21.002Z,21.4509
2023-05-05T05:29:22.102Z,21.4599
2023-05-05T05:30:23.200Z,21.4455
2023-05-05T05:31:24.322Z,21.4596
2023-05-05T05:32:25.419Z,21.4846
2023-05-05T05:33:26.517Z,21.5051
2023-05-05T05:34:27.606Z,21.5095
2023-05-05T05:35:28.707Z,21.5297
2023-05-05T05:36:29.820Z,21.5546
2023-05-05T05:37:30.902Z,21.6081
2023-05-05T05:38:32.003Z,21.6474
2023-05-05T05:39:33.102Z,21.6271
2023-05-05T05:40:34.182Z,21.6657
2023-05-05T05:41:35.304Z,21.6858
2023-05-05T05:42:36.374Z,21.6583
2023-05-05T05:43:37.487Z,21.6124
2023-05-05T05:44:38.597Z,21.6094
2023-05-05T05:45:39.727Z,21.6362
2023-05-05T05:46:40.903Z,21.5644
2023-05-05T05:47:41.905Z,21.5443
2023-05-05T05:48:42.957Z,21.5826
2023-05-05T05:49:44.058Z,21.5407
2023-05-05T05:50:45.162Z,21.5473
2023-05-05T05:51:46.264Z,21.6470
2023-05-05T05:52:47.374Z,21.7310
2023-05-05T05:53:48.446Z,21.7070
2023-05-05T05:54:49.551Z,21.6882
2023-05-05T05:55:50.650Z,21.7183
2023-05-05T05:56:51.751Z,21.6702
2023-05-05T05:57:52.854Z,21.6450
2023-05-05T05:58:54.121Z,21.6411
2023-05-05T05:59:55.042Z,21.5924
2023-05-05T06:00:56.154Z,21.5848
2023-05-05T06:01:57.259Z,21.6104
2023-05-05T06:02:58.404Z,21.6974
2023-05-05T06:03:59.496Z,21.7083
2023-05-05T06:05:00.524Z,21.6758
2023-05-05T06:06:01.658Z,21.6233
2023-05-05T06:07:02.724Z,21.5774
2023-05-05T06:08:03.826Z,21.5528
2023-05-05T06:09:04.957Z,21.5153
2023-05-05T06:10:25.190Z,21.4943
2023-05-05T06:11:08.203Z,21.3854
2023-05-05T06:12:08.304Z,21.3234
2023-05-05T06:13:09.427Z,21.4307
2023-05-05T06:14:10.514Z,21.5010
2023-05-05T06:15:11.586Z,21.4910
2023-05-05T06:16:12.746Z,21.5099
2023-05-05T06:17:13.782Z,21.5587
2023-05-05T06:18:14.898Z,21.5266
2023-05-05T06:19:15.990Z,21.5122
2023-05-05T06:20:17.061Z,21.5123
2023-05-05T06:21:18.148Z,21.5263
2023-05-05T06:22:19.247Z,21.5531
2023-05-05T06:23:20.359Z,21.5494
2023-05-05T06:24:21.465Z,21.5364
2023-05-05T06:25:22.539Z,21.5291
2023-05-05T06:26:23.636Z,21.5414
2023-05-05T06:27:24.755Z,21.5271
2023-05-05T06:28:25.825Z,21.5158
2023-05-05T06:29:26.930Z,21.5056
2023-05-05T06:30:28.020Z,21.4932
2023-05-05T06:31:29.178Z,21.4915
2023-05-05T06:32:30.226Z,21.5229
2023-05-05T06:33:31.302Z,21.5113
2023-05-05T06:34:32.446Z,21.5753
2023-05-05T06:35:33.528Z,21.6419
2023-05-05T06:36:34.687Z,21.6625
2023-05-05T06:37:35.716Z,21.6953
2023-05-05T06:38:36.821Z,21.7866
2023-05-05T06:39:37.921Z,21.8433
2023-05-05T06:40:39.009Z,21.9150
2023-05-05T06:41:40.097Z,21.9083
2023-05-05T06:42:41.194Z,21.8888
2023-05-05T06:43:42.286Z,21.8998
2023-05-05T06:44:43.396Z,21.8541
2023-05-05T06:45:44.507Z,21.8115
2023-05-05T06:46:45.611Z,21.8126
2023-05-05T06:47:46.723Z,21.8041
2023-05-05T06:48:47.811Z,21.8029
2023-05-05T06:49:48.896Z,21.8208
2023-05-05T06:50:49.982Z,21.8092
2023-05-05T06:51:51.085Z,21.8100
2023-05-05T06:52:52.175Z,21.8738
2023-05-05T06:53:53.274Z,21.9152
2023-05-05T06:54:54.379Z,21.8891
2023-05-05T06:55:55.464Z,21.9578
2023-05-05T06:56:59.331Z,21.9835
2023-05-05T06:57:57.700Z,22.0045
2023-05-05T06:58:58.771Z,22.0799
2023-05-05T07:00:00.004Z,22.1262
2023-05-05T07:01:01.025Z,22.1349
2023-05-05T07:02:02.079Z,22.1402
2023-05-05T07:03:03.212Z,22.1072
2023-05-05T07:04:04.357Z,22.1235
2023-05-05T07:05:05.348Z,22.1397
2023-05-05T07:06:06.464Z,22.1520
2023-05-05T07:07:07.549Z,22.1095
2023-05-05T07:08:08.645Z,22.1545
2023-05-05T07:09:09.777Z,22.2026
2023-05-05T07:10:10.939Z,22.2056
2023-05-05T07:11:11.983Z,22.1963
2023-05-05T07:12:13.064Z,22.1239
2023-05-05T07:13:14.229Z,22.1203
2023-05-05T07:14:15.273Z,22.1441
2023-05-05T07:15:26.737Z,22.1846
2023-05-05T07:16:18.470Z,22.2240
2023-05-05T07:17:18.552Z,22.2256
2023-05-05T07:18:19.652Z,22.1662
2023-05-05T07:19:20.757Z,22.1828
2023-05-05T07:20:21.869Z,22.1815
2023-05-05T07:21:22.968Z,22.1918
2023-05-05T07:22:24.077Z,22.1986
2023-05-05T07:23:25.145Z,22.1733
2023-05-05T07:24:26.242Z,22.1855
2023-05-05T07:25:27.364Z,22.1824
2023-05-05T07:26:28.439Z,22.1801
2023-05-05T07:27:29.546Z,22.2134
2023-05-05T07:28:30.631Z,22.2365
2023-05-05T07:29:31.738Z,22.2350
2023-05-05T07:30:32.880Z,22.2584
2023-05-05T07:31:33.949Z,22.2350
2023-05-05T07:32:35.027Z,22.2406
2023-05-05T07:33:36.135Z,22.2896
2023-05-05T07:34:37.477Z,22.3302
2023-05-05T07:35:38.309Z,22.3686
2023-05-05T07:36:39.408Z,22.3380
2023-05-05T07:37:40.492Z,22.2957
2023-05-05T07:38:41.601Z,22.2363
2023-05-05T07:39:42.716Z,22.1599
2023-05-05T07:40:43.813Z,22.1010
2023-05-05T07:41:44.895Z,22.0814
2023-05-05T07:42:45.988Z,22.0120
2023-05-05T07:43:47.089Z,22.0321
2023-05-05T07:44:48.193Z,21.9919
2023-05-05T07:45:49.342Z,21.9776
2023-05-05T07:46:50.357Z,21.9553
2023-05-05T07:47:51.481Z,21.9307
2023-05-05T07:48:52.556Z,21.9366
2023-05-05T07:49:53.638Z,21.9286
2023-05-05T07:50:54.769Z,21.9303
2023-05-05T07:51:55.863Z,21.9196
2023-05-05T07:53:06.215Z,21.8765
2023-05-05T07:53:59.037Z,21.8617
2023-05-05T07:54:59.143Z,21.8678
2023-05-05T07:56:00.269Z,21.8775
2023-05-05T07:57:01.349Z,21.8547
2023-05-05T07:58:02.434Z,21.8559
2023-05-05T07:59:03.555Z,21.8380
2023-05-05T08:00:04.765Z,21.8090
2023-05-05T08:01:05.912Z,21.8008
2023-05-05T08:02:06.924Z,21.7872
2023-05-05T08:03:11.307Z,21.7877
2023-05-05T08:04:09.092Z,21.7969
2023-05-05T08:05:10.264Z,21.7920
2023-05-05T08:06:11.310Z,21.7918
2023-05-05T08:07:12.324Z,21.8036
2023-05-05T08:08:13.418Z,21.8153
2023-05-05T08:09:14.539Z,21.8885
2023-05-05T08:10:15.610Z,21.9172
2023-05-05T08:11:16.722Z,21.8956
2023-05-05T08:12:17.875Z,21.9378
2023-05-05T08:13:19.004Z,21.9715
2023-05-05T08:14:20.037Z,21.9375
2023-05-05T08:15:21.090Z,21.9302
2023-05-05T08:16:22.289Z,21.8974
2023-05-05T08:17:23.310Z,21.9485
2023-05-05T08:18:24.378Z,21.9703
2023-05-05T08:19:29.250Z,21.9121
2023-05-05T08:20:26.564Z,21.8780
2023-05-05T08:21:27.680Z,21.8635
2023-05-05T08:22:28.740Z,21.8385
2023-05-05T08:23:29.842Z,21.8374
2023-05-05T08:24:30.939Z,21.8005
2023-05-05T08:25:32.073Z,21.7452
2023-05-05T08:26:33.157Z,21.7229
2023-05-05T08:27:34.250Z,21.7420
2023-05-05T08:28:35.354Z,21.8031
2023-05-05T08:29:36.429Z,21.8473
2023-05-05T08:30:37.559Z,21.8284
2023-05-05T08:31:38.910Z,21.8356
2023-05-05T08:32:39.813Z,21.8632
2023-05-05T08:33:40.840Z,21.8413
2023-05-05T08:34:41.927Z,21.8061
2023-05-05T08:35:43.038Z,21.7817
2023-05-05T08:36:44.166Z,21.7679
2023-05-05T08:37:45.233Z,21.7919
2023-05-05T08:38:46.350Z,21.7970
2023-05-05T08:39:47.453Z,21.8275
2023-05-05T08:40:48.541Z,21.8335
2023-05-05T08:41:49.644Z,21.8103
2023-05-05T08:42:50.747Z,21.8167
2023-05-05T08:43:51.826Z,21.8049
2023-05-05T08:44:52.942Z,21.8088
2023-05-05T08:45:54.044Z,21.8092
2023-05-05T08:46:55.229Z,21.8133
2023-05-05T08:47:56.275Z,21.7644
2023-05-05T08:48:57.334Z,21.7735
2023-05-05T08:49:58.438Z,21.7913
2023-05-05T08:51:00.791Z,21.8229
2023-05-05T08:52:00.638Z,21.8519
2023-05-05T08:53:01.760Z,21.8854
2023-05-05T08:54:02.811Z,21.9294
2023-05-05T08:55:03.917Z,21.9656
2023-05-05T08:56:05.024Z,21.9968
2023-05-05T08:57:06.141Z,22.0058
2023-05-05T08:58:07.236Z,22.0305
2023-05-05T08:59:08.319Z,22.0180
2023-05-05T09:00:09.419Z,22.0227
2023-05-05T09:01:10.624Z,22.0084
2023-05-05T09:02:11.776Z,22.0287
2023-05-05T09:03:12.842Z,22.0651
2023-05-05T09:04:13.800Z,22.0597
2023-05-05T09:05:14.908Z,22.0629
2023-05-05T09:06:16.003Z,22.0686
2023-05-05T09:07:17.102Z,22.0599
2023-05-05T09:08:18.183Z,22.0704
2023-05-05T09:09:19.280Z,22.0704
2023-05-05T09:10:20.374Z,22.0760
2023-05-05T09:11:21.479Z,22.1036
2023-05-05T09:12:22.579Z,22.1362
2023-05-05T09:13:23.660Z,22.1547
2023-05-05T09:14:24.780Z,22.1578
2023-05-05T09:15:25.869Z,22.1983
2023-05-05T09:16:26.978Z,22.1906
2023-05-05T09:17:28.145Z,22.1444
2023-05-05T09:18:29.129Z,22.1118
2023-05-05T09:19:30.220Z,22.1148
2023-05-05T09:20:31.316Z,22.1533
2023-05-05T09:21:32.474Z,22.1741
2023-05-05T09:22:33.527Z,22.2027
2023-05-05T09:23:34.613Z,22.1815
2023-05-05T09:24:35.706Z,22.2223
2023-05-05T09:25:36.800Z,22.2768
2023-05-05T09:26:37.915Z,22.3123
2023-05-05T09:27:39.016Z,22.3074
2023-05-05T09:28:40.101Z,22.3158
2023-05-05T09:29:41.256Z,22.3437
2023-05-05T09:30:42.339Z,22.3586
2023-05-05T09:31:43.410Z,22.3537
2023-05-05T09:32:44.670Z,22.3830
2023-05-05T09:33:45.600Z,22.4307
2023-05-05T09:34:46.675Z,22.4826
2023-05-05T09:35:47.783Z,22.5200
2023-05-05T09:36:48.916Z,22.5069
2023-05-05T09:37:49.994Z,22.4707
2023-05-05T09:38:51.071Z,22.4200
2023-05-05T09:39:52.179Z,22.3756
2023-05-05T09:40:53.272Z,22.3606
2023-05-05T09:41:54.379Z,22.4075
2023-05-05T09:42:55.474Z,22.4711
2023-05-05T09:43:56.565Z,22.5374
2023-05-05T09:44:59.679Z,22.5752
2023-05-05T09:45:58.819Z,22.5963
2023-05-05T09:46:59.876Z,22.5996
2023-05-05T09:48:01.176Z,22.6279
2023-05-05T09:49:02.070Z,22.6401
2023-05-05T09:50:03.160Z,22.6287
2023-05-05T09:51:04.256Z,22.6401
2023-05-05T09:52:05.379Z,22.6373
2023-05-05T09:53:06.451Z,22.6372
2023-05-05T09:54:07.575Z,22.6841
2023-05-05T09:55:08.657Z,22.7294
2023-05-05T09:56:09.753Z,22.7490
2023-05-05T09:57:10.836Z,22.7487
2023-05-05T09:58:11.972Z,22.7520
2023-05-05T09:59:13.054Z,22.7635
2023-05-05T10:00:14.150Z,22.7621
2023-05-05T10:01:15.258Z,22.7414
2023-05-05T10:02:16.352Z,22.7359
2023-05-05T10:03:17.515Z,22.7370
2023-05-05T10:04:18.535Z,22.7501
2023-05-05T10:05:19.680Z,22.7792
2023-05-05T10:06:20.728Z,22.8060
2023-05-05T10:07:21.831Z,22.8205
2023-05-05T10:08:22.915Z,22.8329
2023-05-05T10:09:24.026Z,22.8034
2023-05-05T10:10:26.903Z,22.7859
2023-05-05T10:11:26.296Z,22.8135
2023-05-05T10:12:27.400Z,22.7618
2023-05-05T10:13:28.505Z,22.7021
2023-05-05T10:14:29.576Z,22.6786
2023-05-05T10:15:30.655Z,22.7043
2023-05-05T10:16:31.849Z,22.7313
2023-05-05T10:17:32.921Z,22.7382
2023-05-05T10:18:34.032Z,22.7161
2023-05-05T10:19:35.066Z,22.6572
2023-05-05T10:20:36.195Z,22.6792
2023-05-05T10:21:37.234Z,22.6681
2023-05-05T10:22:38.324Z,22.6322
2023-05-05T10:23:39.427Z,22.6252
2023-05-05T10:24:40.529Z,22.6322
2023-05-05T10:25:41.623Z,22.6287
2023-05-05T10:26:42.725Z,22.6440
2023-05-05T10:27:43.818Z,22.6323
2023-05-05T10:28:44.963Z,22.6559
2023-05-05T10:29:46.035Z,22.6785
2023-05-05T10:30:47.098Z,22.6589
2023-05-05T10:31:48.215Z,22.6299
2023-05-05T10:32:54.389Z,22.6575
2023-05-05T10:33:51.586Z,22.6662
2023-05-05T10:34:51.487Z,22.6426
2023-05-05T10:35:52.593Z,22.6396
2023-05-05T10:36:53.703Z,22.6276
2023-05-05T10:37:54.806Z,22.5618
2023-05-05T10:38:55.903Z,22.4771
2023-05-05T10:39:56.967Z,22.4315
2023-05-05T10:40:58.063Z,22.4922
2023-05-05T10:41:59.191Z,22.5573
2023-05-05T10:43:00.271Z,22.6007
2023-05-05T10:44:04.284Z,22.6264
2023-05-05T10:45:02.501Z,22.6210
2023-05-05T10:46:03.590Z,22.6283
2023-05-05T10:47:04.668Z,22.5791
2023-05-05T10:48:05.811Z,22.5299
2023-05-05T10:49:06.859Z,22.5380
2023-05-05T10:50:08.190Z,22.5533
2023-05-05T10:51:09.056Z,22.6395
2023-05-05T10:52:10.129Z,22.6963
2023-05-05T10:53:11.271Z,22.6388
2023-05-05T10:54:12.391Z,22.5878
2023-05-05T10:55:13.484Z,22.5471
2023-05-05T10:56:14.528Z,22.5587
2023-05-05T10:57:15.635Z,22.6234
2023-05-05T10:58:16.713Z,22.6782
2023-05-05T10:59:17.811Z,22.6580
2023-05-05T11:00:18.918Z,22.6851
2023-05-05T11:01:20.050Z,22.7518
2023-05-05T11:02:21.130Z,22.8079
2023-05-05T11:03:22.383Z,22.8838
2023-05-05T11:04:23.460Z,22.8842
2023-05-05T11:05:24.387Z,22.8503
2023-05-05T11:06:25.490Z,22.8810
2023-05-05T11:07:26.574Z,22.9457
2023-05-05T11:08:27.690Z,23.0498
2023-05-05T11:09:28.897Z,23.1200
2023-05-05T11:10:29.875Z,23.1659
2023-05-05T11:11:30.968Z,23.1696
2023-05-05T11:12:32.150Z,23.1225
2023-05-05T11:13:33.168Z,23.0567
2023-05-05T11:14:34.290Z,23.1023
2023-05-05T11:15:35.435Z,23.1807
2023-05-05T11:16:36.473Z,23.2378
2023-05-05T11:17:37.538Z,23.2839
2023-05-05T11:18:38.663Z,23.3457
2023-05-05T11:19:39.852Z,23.4891
2023-05-05T11:20:40.837Z,23.6407
2023-05-05T11:21:41.910Z,23.7691
2023-05-05T11:22:43.020Z,23.9011
2023-05-05T11:23:44.116Z,24.0186
2023-05-05T11:24:45.227Z,24.1320
2023-05-05T11:25:46.314Z,24.2117
2023-05-05T11:26:47.427Z,24.2827
2023-05-05T11:27:48.496Z,24.3352
2023-05-05T11:28:49.601Z,24.3154
2023-05-05T11:29:52.051Z,24.2665
2023-05-05T11:30:51.839Z,24.2823
2023-05-05T11:31:52.878Z,24.3648
2023-05-05T11:32:54.085Z,24.3565
2023-05-05T11:33:55.087Z,24.2904
2023-05-05T11:34:56.265Z,24.2202
2023-05-05T11:35:57.286Z,24.1142
2023-05-05T11:36:58.376Z,24.0736
2023-05-05T11:37:59.471Z,23.9732
2023-05-05T11:39:00.570Z,24.1063
2023-05-05T11:40:01.696Z,24.2777
2023-05-05T11:41:02.779Z,24.4096
2023-05-05T11:42:09.410Z,24.4989
2023-05-05T11:43:05.976Z,24.3455
2023-05-05T11:44:06.068Z,24.2064
2023-05-05T11:45:07.163Z,24.2088
2023-05-05T11:46:08.306Z,24.2684
2023-05-05T11:47:09.354Z,24.2776
2023-05-05T11:48:10.457Z,24.3248
2023-05-05T11:49:11.532Z,24.3875
2023-05-05T11:50:12.738Z,24.3783
2023-05-05T11:51:13.729Z,24.3438
2023-05-05T11:52:14.873Z,24.2637
2023-05-05T11:53:15.918Z,24.2058
2023-05-05T11:54:17.025Z,24.1531
2023-05-05T11:55:18.123Z,23.9954
2023-05-05T11:56:19.446Z,23.8681
2023-05-05T11:57:20.322Z,23.9413
2023-05-05T11:58:21.410Z,23.9262
2023-05-05T11:59:22.513Z,23.7694
2023-05-05T12:00:23.610Z,23.6624
2023-05-05T12:01:24.705Z,23.6607
2023-05-05T12:02:25.839Z,23.6597
2023-05-05T12:03:27.144Z,23.5811
2023-05-05T12:04:28.037Z,23.5831
2023-05-05T12:05:29.194Z,23.5257
2023-05-05T12:06:30.212Z,23.4875
2023-05-05T12:07:31.309Z,23.4988
2023-05-05T12:08:32.394Z,23.5604
2023-05-05T12:09:33.476Z,23.5646
2023-05-05T12:10:34.600Z,23.6140
2023-05-05T12:11:35.746Z,23.6822
2023-05-05T12:12:36.792Z,23.7041
2023-05-05T12:13:37.863Z,23.7637
2023-05-05T12:14:38.962Z,23.9165
2023-05-05T12:15:40.072Z,24.0201
2023-05-05T12:16:41.335Z,24.0737
2023-05-05T12:17:42.317Z,24.0600
2023-05-05T12:18:43.370Z,24.0668